createdAt,value
2023-01-09T00:00:48.605Z,951.3400
2023-01-09T00:01:50.959Z,951.3800
2023-01-09T00:02:53.346Z,951.3800
2023-01-09T00:03:55.780Z,951.3800
2023-01-09T00:04:58.023Z,951.3600
2023-01-09T00:05:58.184Z,951.3000
2023-01-09T00:07:00.553Z,951.2400
2023-01-09T00:08:02.974Z,951.1400
2023-01-09T00:09:05.313Z,951.0900
2023-01-09T00:10:07.713Z,951.0300
2023-01-09T00:11:07.939Z,951.0100
2023-01-09T00:12:10.332Z,950.9900
2023-01-09T00:13:12.766Z,951.0700
2023-01-09T00:14:15.035Z,951.1100
2023-01-09T00:15:15.233Z,951.1200
2023-01-09T00:16:17.613Z,951.1400
2023-01-09T00:17:19.948Z,951.0900
2023-01-09T00:18:22.262Z,951.1400
2023-01-09T00:19:24.547Z,951.1200
2023-01-09T00:20:26.912Z,951.1200
2023-01-09T00:21:27.054Z,951.1400
2023-01-09T00:22:29.348Z,951.1100
2023-01-09T00:23:31.834Z,951.1200
2023-01-09T00:24:34.056Z,951.1400
2023-01-09T00:25:34.261Z,951.1200
2023-01-09T00:26:36.611Z,951.1600
2023-01-09T00:27:38.980Z,951.2000
2023-01-09T00:28:41.399Z,951.1800
2023-01-09T00:29:43.684Z,951.1100
2023-01-09T00:30:43.913Z,951.0900
2023-01-09T00:31:46.229Z,951.0700
2023-01-09T00:32:48.609Z,951.0500
2023-01-09T00:33:51.003Z,951.0900
2023-01-09T00:34:53.328Z,951.1400
2023-01-09T00:35:53.585Z,951.1200
2023-01-09T00:36:56.015Z,951.1400
2023-01-09T00:37:58.430Z,951.1600
2023-01-09T00:39:00.884Z,951.2000
2023-01-09T00:40:01.083Z,951.2000
2023-01-09T00:41:03.482Z,951.1600
2023-01-09T00:42:05.893Z,951.1200
2023-01-09T00:43:08.301Z,951.0900
2023-01-09T00:44:08.688Z,951.0900
2023-01-09T00:45:10.957Z,951.1200
2023-01-09T00:46:13.534Z,951.1400
2023-01-09T00:47:15.802Z,951.1600
2023-01-09T00:48:16.048Z,951.1600
2023-01-09T00:49:18.483Z,951.1400
2023-01-09T00:50:20.884Z,951.1600
2023-01-09T00:51:25.388Z,951.2000
2023-01-09T00:51:42.605Z,951.2000
2023-01-09T00:52:44.962Z,951.2600
2023-01-09T00:53:47.357Z,951.2200
2023-01-09T00:54:49.786Z,951.1800
2023-01-09T00:55:49.997Z,951.1200
2023-01-09T00:56:52.356Z,951.1200
2023-01-09T00:57:54.714Z,951.1200
2023-01-09T00:58:57.043Z,951.1200
2023-01-09T00:59:57.378Z,951.0900
2023-01-09T01:00:59.721Z,951.0700
2023-01-09T01:02:02.161Z,951.0300
2023-01-09T01:03:04.323Z,950.9900
2023-01-09T01:04:06.641Z,950.9300
2023-01-09T01:05:06.828Z,950.9300
2023-01-09T01:06:09.092Z,950.9100
2023-01-09T01:07:11.395Z,950.9500
2023-01-09T01:08:13.723Z,950.9500
2023-01-09T01:09:16.076Z,950.9500
2023-01-09T01:10:18.432Z,951.0100
2023-01-09T01:11:18.611Z,950.9900
2023-01-09T01:12:20.955Z,951.0100
2023-01-09T01:13:23.314Z,951.0500
2023-01-09T01:14:25.670Z,951.0900
2023-01-09T01:15:28.149Z,951.1100
2023-01-09T01:16:28.372Z,951.0900
2023-01-09T01:17:30.754Z,951.1200
2023-01-09T01:18:33.150Z,951.1100
2023-01-09T01:19:35.507Z,951.1200
2023-01-09T01:20:35.778Z,951.1100
2023-01-09T01:21:37.985Z,951.1100
2023-01-09T01:22:40.326Z,951.1100
2023-01-09T01:23:42.648Z,951.1400
2023-01-09T01:24:44.961Z,951.1200
2023-01-09T01:25:45.159Z,951.1200
2023-01-09T01:26:47.428Z,951.1200
2023-01-09T01:27:49.671Z,951.1800
2023-01-09T01:28:51.919Z,951.1600
2023-01-09T01:29:54.165Z,951.1100
2023-01-09T01:30:56.618Z,951.0700
2023-01-09T01:31:58.682Z,951.0900
2023-01-09T01:32:58.865Z,951.0900
2023-01-09T01:34:01.176Z,951.1100
2023-01-09T01:35:03.468Z,951.1400
2023-01-09T01:36:05.832Z,951.1400
2023-01-09T01:37:08.032Z,951.1800
2023-01-09T01:38:10.326Z,951.1400
2023-01-09T01:39:12.637Z,951.1400
2023-01-09T01:40:12.813Z,951.2000
2023-01-09T01:41:15.150Z,951.2200
2023-01-09T01:42:17.423Z,951.1800
2023-01-09T01:43:19.682Z,951.2200
2023-01-09T01:44:22.027Z,951.1800
2023-01-09T01:45:24.327Z,951.2000
2023-01-09T01:46:24.463Z,951.2600
2023-01-09T01:47:26.643Z,951.3200
2023-01-09T01:48:28.912Z,951.3400
2023-01-09T01:49:31.188Z,951.3400
2023-01-09T01:50:33.499Z,951.3400
2023-01-09T01:51:35.754Z,951.3600
2023-01-09T01:52:38.018Z,951.4000
2023-01-09T01:53:40.298Z,951.3400
2023-01-09T01:54:42.624Z,951.4000
2023-01-09T01:55:42.782Z,951.4600
2023-01-09T01:56:45.236Z,951.4600
2023-01-09T01:57:47.452Z,951.5400
2023-01-09T01:58:49.828Z,951.6500
2023-01-09T01:59:52.151Z,951.6700
2023-01-09T02:00:52.335Z,951.6700
2023-01-09T02:01:54.800Z,951.6700
2023-01-09T02:02:56.955Z,951.7300
2023-01-09T02:03:59.232Z,951.5600
2023-01-09T02:05:01.517Z,951.6500
2023-01-09T02:06:03.843Z,951.5200
2023-01-09T02:07:04.058Z,951.6500
2023-01-09T02:08:06.357Z,951.5400
2023-01-09T02:09:08.729Z,951.5600
2023-01-09T02:10:11.032Z,951.5800
2023-01-09T02:11:13.412Z,951.5200
2023-01-09T02:12:13.654Z,951.5800
2023-01-09T02:13:15.978Z,951.5200
2023-01-09T02:14:18.321Z,951.5000
2023-01-09T02:15:20.692Z,951.4000
2023-01-09T02:16:23.117Z,951.4200
2023-01-09T02:17:23.283Z,951.4400
2023-01-09T02:18:25.568Z,951.4400
2023-01-09T02:19:27.937Z,951.4200
2023-01-09T02:20:30.263Z,951.5000
2023-01-09T02:21:32.608Z,951.5000
2023-01-09T02:22:32.858Z,951.5800
2023-01-09T02:23:35.033Z,951.5600
2023-01-09T02:24:37.295Z,951.5000
2023-01-09T02:25:39.550Z,951.6500
2023-01-09T02:26:41.784Z,951.6900
2023-01-09T02:27:44.101Z,951.8100
2023-01-09T02:28:46.369Z,951.8300
2023-01-09T02:29:46.497Z,951.8300
2023-01-09T02:30:48.842Z,951.8700
2023-01-09T02:31:51.230Z,951.9300
2023-01-09T02:32:53.455Z,952.0300
2023-01-09T02:33:55.722Z,952.0300
2023-01-09T02:34:58.077Z,952.1600
2023-01-09T02:36:00.400Z,952.1400
2023-01-09T02:37:02.668Z,952.2600
2023-01-09T02:38:05.072Z,952.2600
2023-01-09T02:39:07.339Z,952.0900
2023-01-09T02:40:09.656Z,952.0900
2023-01-09T02:41:11.949Z,952.0400
2023-01-09T02:42:12.169Z,952.0400
2023-01-09T02:43:14.529Z,952.0400
2023-01-09T02:44:16.826Z,952.0600
2023-01-09T02:45:19.151Z,952.0400
2023-01-09T02:46:21.449Z,952.0600
2023-01-09T02:47:21.582Z,952.0300
2023-01-09T02:48:24.004Z,952.0300
2023-01-09T02:49:26.206Z,952.0400
2023-01-09T02:50:28.565Z,952.1600
2023-01-09T02:51:30.906Z,952.1200
2023-01-09T02:52:33.269Z,952.1600
2023-01-09T02:53:33.646Z,952.2200
2023-01-09T02:54:35.916Z,952.2000
2023-01-09T02:55:38.297Z,952.2400
2023-01-09T02:56:40.663Z,952.2200
2023-01-09T02:57:40.875Z,952.2000
2023-01-09T02:58:43.311Z,952.1600
2023-01-09T02:59:45.639Z,952.1200
2023-01-09T03:00:48.097Z,952.1800
2023-01-09T03:01:50.589Z,952.2600
2023-01-09T03:02:50.703Z,952.3400
2023-01-09T03:03:53.100Z,952.3200
2023-01-09T03:04:55.430Z,952.3800
2023-01-09T03:05:57.798Z,952.4800
2023-01-09T03:06:58.024Z,952.5600
2023-01-09T03:08:00.397Z,952.5200
2023-01-09T03:09:02.795Z,952.6300
2023-01-09T03:10:05.106Z,952.7300
2023-01-09T03:11:07.487Z,952.8300
2023-01-09T03:12:09.843Z,952.9300
2023-01-09T03:13:12.213Z,952.8900
2023-01-09T03:14:14.573Z,952.9500
2023-01-09T03:15:14.731Z,953.0200
2023-01-09T03:16:17.219Z,953.0400
2023-01-09T03:17:19.528Z,953.0600
2023-01-09T03:18:21.878Z,952.9700
2023-01-09T03:19:24.326Z,953.1800
2023-01-09T03:20:24.559Z,953.1600
2023-01-09T03:21:26.881Z,953.2200
2023-01-09T03:22:29.255Z,953.3200
2023-01-09T03:23:31.593Z,953.3200
2023-01-09T03:24:31.898Z,953.3200
2023-01-09T03:25:34.190Z,953.4400
2023-01-09T03:26:36.568Z,953.4200
2023-01-09T03:27:38.965Z,953.6100
2023-01-09T03:28:41.363Z,953.5700
2023-01-09T03:29:41.639Z,953.6100
2023-01-09T03:30:44.036Z,953.6500
2023-01-09T03:31:46.512Z,953.6700
2023-01-09T03:32:48.851Z,953.6700
2023-01-09T03:33:49.070Z,953.6300
2023-01-09T03:34:51.499Z,953.5700
2023-01-09T03:35:53.791Z,953.7100
2023-01-09T03:36:56.162Z,953.6100
2023-01-09T03:37:56.416Z,953.5900
2023-01-09T03:38:58.763Z,953.6300
2023-01-09T03:40:01.121Z,953.6300
2023-01-09T03:41:03.426Z,953.6900
2023-01-09T03:42:05.726Z,953.7900
2023-01-09T03:43:05.903Z,953.8100
2023-01-09T03:44:08.206Z,953.7700
2023-01-09T03:45:10.578Z,953.8900
2023-01-09T03:46:13.007Z,953.9200
2023-01-09T03:47:15.313Z,953.8700
2023-01-09T03:48:17.608Z,954.0000
2023-01-09T03:49:19.942Z,954.0600
2023-01-09T03:50:22.348Z,954.0000
2023-01-09T03:51:24.635Z,954.0200
2023-01-09T03:52:26.959Z,954.2200
2023-01-09T03:53:27.159Z,953.9800
2023-01-09T03:54:29.506Z,954.0200
2023-01-09T03:55:31.880Z,953.9600
2023-01-09T03:56:34.188Z,953.8900
2023-01-09T03:58:56.201Z,954.0400
2023-01-09T03:59:58.497Z,954.1000
2023-01-09T04:01:01.044Z,954.1000
2023-01-09T04:02:04.107Z,954.2600
2023-01-09T04:03:05.420Z,954.3000
2023-01-09T04:04:07.772Z,954.3400
2023-01-09T04:05:07.867Z,954.3400
2023-01-09T04:06:10.220Z,954.4900
2023-01-09T04:07:12.558Z,954.4900
2023-01-09T04:08:14.924Z,954.4000
2023-01-09T04:09:17.297Z,954.4200
2023-01-09T04:10:17.507Z,954.4000
2023-01-09T04:11:19.863Z,954.4900
2023-01-09T04:12:22.172Z,954.5500
2023-01-09T04:13:24.533Z,954.7100
2023-01-09T04:14:26.899Z,954.8700
2023-01-09T04:15:27.085Z,954.9100
2023-01-09T04:16:29.667Z,954.9200
2023-01-09T04:17:31.828Z,954.8700
2023-01-09T04:18:34.187Z,954.8500
2023-01-09T04:19:36.555Z,954.8300
2023-01-09T04:20:36.775Z,954.8900
2023-01-09T04:21:39.214Z,954.8500
2023-01-09T04:22:41.562Z,954.9200
2023-01-09T04:23:43.937Z,954.8700
2023-01-09T04:24:44.180Z,954.7700
2023-01-09T04:25:46.562Z,954.8300
2023-01-09T04:26:48.974Z,954.7700
2023-01-09T04:27:51.256Z,954.7300
2023-01-09T04:28:53.594Z,954.7300
2023-01-09T04:29:53.767Z,954.7900
2023-01-09T04:30:56.113Z,954.8300
2023-01-09T04:31:58.485Z,954.9400
2023-01-09T04:33:00.837Z,954.9600
2023-01-09T04:34:03.258Z,954.9800
2023-01-09T04:35:05.633Z,954.9600
2023-01-09T04:36:08.015Z,955.0400
2023-01-09T04:37:10.432Z,955.0000
2023-01-09T04:38:10.599Z,954.9200
2023-01-09T04:39:12.975Z,954.9600
2023-01-09T04:40:15.332Z,954.9800
2023-01-09T04:41:17.619Z,954.9600
2023-01-09T04:42:20.058Z,955.0000
2023-01-09T04:43:22.247Z,954.9800
2023-01-09T04:44:22.410Z,955.1000
2023-01-09T04:45:24.706Z,955.1000
2023-01-09T04:46:26.967Z,955.1800
2023-01-09T04:47:29.310Z,955.1800
2023-01-09T04:48:31.560Z,955.3000
2023-01-09T04:49:33.911Z,955.2800
2023-01-09T04:50:34.084Z,955.2600
2023-01-09T04:51:36.440Z,955.3900
2023-01-09T04:52:39.183Z,955.4300
2023-01-09T04:53:41.107Z,955.3900
2023-01-09T04:54:43.401Z,955.3800
2023-01-09T04:55:45.743Z,955.5100
2023-01-09T04:56:45.941Z,955.5100
2023-01-09T04:57:48.348Z,955.4900
2023-01-09T04:58:50.648Z,955.5100
2023-01-09T04:59:54.270Z,955.5100
2023-01-09T05:00:55.477Z,955.5700
2023-01-09T05:01:55.664Z,955.6500
2023-01-09T05:02:57.956Z,955.6100
2023-01-09T05:04:00.348Z,955.6900
2023-01-09T05:05:02.628Z,955.7300
2023-01-09T05:06:04.998Z,955.7100
2023-01-09T05:07:05.194Z,955.7300
2023-01-09T05:08:07.618Z,955.7700
2023-01-09T05:09:09.970Z,955.7700
2023-01-09T05:10:10.148Z,955.8100
2023-01-09T05:11:12.470Z,955.8300
2023-01-09T05:12:14.828Z,955.8100
2023-01-09T05:13:17.281Z,955.7900
2023-01-09T05:14:19.523Z,955.8100
2023-01-09T05:15:19.666Z,955.7700
2023-01-09T05:16:22.066Z,955.7700
2023-01-09T05:17:24.322Z,955.8100
2023-01-09T05:18:26.790Z,955.7700
2023-01-09T05:19:28.924Z,955.8100
2023-01-09T05:20:31.260Z,955.7900
2023-01-09T05:21:31.458Z,955.8600
2023-01-09T05:22:33.780Z,955.9000
2023-01-09T05:23:36.151Z,955.9000
2023-01-09T05:24:38.435Z,955.9400
2023-01-09T05:26:30.376Z,956.0200
2023-01-09T05:27:32.666Z,956.0400
2023-01-09T05:28:34.985Z,956.0600
2023-01-09T05:29:37.359Z,956.0600
2023-01-09T05:30:37.554Z,956.0600
2023-01-09T05:31:39.964Z,956.0800
2023-01-09T05:32:42.282Z,956.0400
2023-01-09T05:33:44.638Z,956.0800
2023-01-09T05:34:47.152Z,955.9800
2023-01-09T05:35:36.498Z,956.0200
2023-01-09T05:36:38.872Z,956.0200
2023-01-09T05:37:41.248Z,956.0200
2023-01-09T05:38:43.609Z,956.1200
2023-01-09T05:39:43.800Z,956.1000
2023-01-09T05:40:46.171Z,956.0800
2023-01-09T05:41:48.471Z,956.0600
2023-01-09T05:42:50.835Z,956.0400
2023-01-09T05:43:53.215Z,956.0200
2023-01-09T05:44:53.448Z,955.9600
2023-01-09T05:45:55.888Z,955.9200
2023-01-09T05:46:58.236Z,955.9000
2023-01-09T05:48:00.639Z,955.8500
2023-01-09T05:49:00.875Z,955.8500
2023-01-09T05:50:03.298Z,955.9000
2023-01-09T05:51:07.371Z,955.9600
2023-01-09T05:52:07.972Z,956.0400
2023-01-09T05:53:10.333Z,956.1200
2023-01-09T05:54:10.557Z,956.1400
2023-01-09T05:55:12.869Z,956.1600
2023-01-09T05:56:15.312Z,956.1400
2023-01-09T05:57:17.534Z,956.1200
2023-01-09T05:58:19.844Z,956.0600
2023-01-09T05:59:20.034Z,956.0200
2023-01-09T06:00:22.374Z,956.0400
2023-01-09T06:01:24.785Z,956.0800
2023-01-09T06:02:27.096Z,956.0800
2023-01-09T06:03:29.352Z,956.0600
2023-01-09T06:04:31.654Z,956.0600
2023-01-09T06:05:31.848Z,955.9600
2023-01-09T06:06:34.319Z,956.0000
2023-01-09T06:07:36.556Z,956.0000
2023-01-09T06:08:38.873Z,956.0000
2023-01-09T06:09:41.189Z,956.0400
2023-01-09T06:10:41.352Z,956.0600
2023-01-09T06:11:43.755Z,956.1400
2023-01-09T06:12:46.059Z,956.1000
2023-01-09T06:13:48.405Z,956.1200
2023-01-09T06:14:48.663Z,956.0800
2023-01-09T06:15:51.090Z,956.0600
2023-01-09T06:16:53.518Z,956.0600
2023-01-09T06:17:55.780Z,956.0400
2023-01-09T06:18:58.163Z,956.0600
2023-01-09T06:19:58.377Z,956.0400
2023-01-09T06:21:00.750Z,956.0200
2023-01-09T06:22:03.197Z,956.0200
2023-01-09T06:23:05.530Z,956.0600
2023-01-09T06:24:05.730Z,956.0200
2023-01-09T06:25:08.119Z,956.0200
2023-01-09T06:26:10.453Z,956.0400
2023-01-09T06:27:12.893Z,955.9800
2023-01-09T06:28:15.246Z,955.9400
2023-01-09T06:29:15.522Z,955.9400
2023-01-09T06:30:17.941Z,955.9800
2023-01-09T06:31:20.425Z,956.0200
2023-01-09T06:32:22.833Z,955.9600
2023-01-09T06:33:22.959Z,956.0200
2023-01-09T06:34:25.353Z,956.0000
2023-01-09T06:35:27.805Z,956.0200
2023-01-09T06:36:30.168Z,955.9800
2023-01-09T06:37:30.527Z,956.0600
2023-01-09T06:38:32.805Z,956.1000
2023-01-09T06:39:35.228Z,956.1200
2023-01-09T06:40:37.670Z,956.1200
2023-01-09T06:41:37.904Z,956.1400
2023-01-09T06:42:40.271Z,956.1800
2023-01-09T06:43:42.653Z,956.1800
2023-01-09T06:44:45.047Z,956.1800
2023-01-09T06:45:45.307Z,956.1800
2023-01-09T06:46:47.682Z,956.2400
2023-01-09T06:47:50.220Z,956.2600
2023-01-09T06:48:52.468Z,956.2400
2023-01-09T06:49:54.854Z,956.2400
2023-01-09T06:50:57.254Z,956.3000
2023-01-09T06:51:59.601Z,956.2600
2023-01-09T06:54:08.763Z,956.2600
2023-01-09T06:55:11.040Z,956.2600
2023-01-09T06:56:13.387Z,956.2400
2023-01-09T06:57:13.586Z,956.1800
2023-01-09T06:58:15.954Z,956.1600
2023-01-09T06:59:18.381Z,956.1800
2023-01-09T07:00:20.722Z,956.1800
2023-01-09T07:01:21.088Z,956.1400
2023-01-09T07:02:23.363Z,956.1000
2023-01-09T07:03:25.749Z,956.1000
2023-01-09T07:04:28.159Z,955.9000
2023-01-09T07:05:28.341Z,955.9200
2023-01-09T07:06:30.707Z,955.8600
2023-01-09T07:07:33.121Z,955.8100
2023-01-09T07:08:35.493Z,955.7500
2023-01-09T07:09:37.878Z,955.7300
2023-01-09T07:10:38.087Z,955.6500
2023-01-09T07:11:40.637Z,955.6500
2023-01-09T07:12:42.910Z,955.6700
2023-01-09T07:13:45.266Z,955.6100
2023-01-09T07:14:45.524Z,955.6100
2023-01-09T07:15:47.890Z,955.6300
2023-01-09T07:16:50.196Z,955.6700
2023-01-09T07:17:52.601Z,955.6500
2023-01-09T07:18:52.855Z,955.5700
2023-01-09T07:19:55.395Z,955.6100
2023-01-09T07:20:57.676Z,955.6100
2023-01-09T07:22:00.115Z,955.6500
2023-01-09T07:23:00.350Z,955.6700
2023-01-09T07:24:02.743Z,955.7100
2023-01-09T07:25:05.170Z,955.7300
2023-01-09T07:26:07.506Z,955.6700
2023-01-09T07:27:07.723Z,955.7500
2023-01-09T07:28:10.120Z,955.6900
2023-01-09T07:29:12.517Z,955.7100
2023-01-09T07:30:14.948Z,955.7700
2023-01-09T07:31:17.355Z,955.6900
2023-01-09T07:32:19.683Z,955.7500
2023-01-09T07:33:22.063Z,955.7300
2023-01-09T07:34:24.430Z,955.7700
2023-01-09T07:35:24.753Z,955.7500
2023-01-09T07:36:27.032Z,955.7500
2023-01-09T07:37:29.395Z,955.7300
2023-01-09T07:38:31.765Z,955.7900
2023-01-09T07:39:34.121Z,955.7300
2023-01-09T07:40:34.346Z,955.7900
2023-01-09T07:41:36.615Z,955.7900
2023-01-09T07:42:38.977Z,955.7100
2023-01-09T07:43:41.265Z,955.7900
2023-01-09T07:44:43.613Z,955.8100
2023-01-09T07:45:43.863Z,955.7700
2023-01-09T07:46:46.114Z,955.8100
2023-01-09T07:47:48.443Z,955.7900
2023-01-09T07:48:50.784Z,955.7900
2023-01-09T07:49:53.129Z,955.8100
2023-01-09T07:50:55.475Z,955.8300
2023-01-09T07:51:55.631Z,955.8300
2023-01-09T07:52:57.989Z,955.8600
2023-01-09T07:54:00.308Z,955.8300
2023-01-09T07:55:02.663Z,955.8300
2023-01-09T07:56:05.010Z,955.8600
2023-01-09T07:57:05.124Z,955.9200
2023-01-09T07:58:05.351Z,955.9200
2023-01-09T07:59:07.692Z,955.9800
2023-01-09T08:00:10.035Z,955.9600
2023-01-09T08:01:12.762Z,955.9800
2023-01-09T08:02:12.738Z,955.9800
2023-01-09T08:03:14.997Z,955.9800
2023-01-09T08:04:17.332Z,955.9800
2023-01-09T08:05:19.687Z,955.9800
2023-01-09T08:06:22.034Z,956.0000
2023-01-09T08:07:22.175Z,955.9800
2023-01-09T08:08:24.495Z,955.9600
2023-01-09T08:09:26.820Z,955.9800
2023-01-09T08:10:29.190Z,955.9400
2023-01-09T08:11:29.413Z,955.9200
2023-01-09T08:12:31.709Z,955.9600
2023-01-09T08:13:34.083Z,955.9600
2023-01-09T08:14:36.351Z,955.9000
2023-01-09T08:15:38.756Z,955.9000
2023-01-09T08:16:41.146Z,955.9000
2023-01-09T08:17:41.219Z,955.9200
2023-01-09T08:18:43.580Z,955.9600
2023-01-09T08:19:45.932Z,955.9200
2023-01-09T08:20:48.313Z,955.9400
2023-01-09T08:21:50.714Z,955.9400
2023-01-09T08:22:50.921Z,956.0000
2023-01-09T08:23:53.255Z,956.0200
2023-01-09T08:24:55.604Z,956.0400
2023-01-09T08:25:57.958Z,956.0600
2023-01-09T08:27:00.325Z,956.0600
2023-01-09T08:28:00.484Z,956.0600
2023-01-09T08:29:02.838Z,956.0600
2023-01-09T08:30:05.156Z,956.1000
2023-01-09T08:31:07.637Z,956.0600
2023-01-09T08:32:10.053Z,956.1400
2023-01-09T08:33:10.124Z,956.1400
2023-01-09T08:34:12.485Z,956.1800
2023-01-09T08:35:14.847Z,956.1800
2023-01-09T08:36:17.241Z,956.2400
2023-01-09T08:37:17.403Z,956.2600
2023-01-09T08:38:19.713Z,956.2400
2023-01-09T08:39:22.074Z,956.2800
2023-01-09T08:40:24.496Z,956.2800
2023-01-09T08:41:26.877Z,956.2800
2023-01-09T08:42:27.190Z,956.3200
2023-01-09T08:43:29.529Z,956.2600
2023-01-09T08:44:32.020Z,956.2600
2023-01-09T08:45:32.175Z,956.2800
2023-01-09T08:46:34.877Z,956.2400
2023-01-09T08:47:37.022Z,956.2200
2023-01-09T08:48:39.279Z,956.2200
2023-01-09T08:49:41.640Z,956.2200
2023-01-09T08:50:41.835Z,956.2200
2023-01-09T08:51:44.215Z,956.2400
2023-01-09T08:52:46.661Z,956.2200
2023-01-09T08:53:48.990Z,956.2000
2023-01-09T08:54:49.255Z,956.1800
2023-01-09T08:55:51.617Z,956.2200
2023-01-09T08:56:53.973Z,956.1600
2023-01-09T08:57:56.324Z,956.1800
2023-01-09T08:58:56.491Z,956.1200
2023-01-09T08:59:58.853Z,956.1200
2023-01-09T09:01:01.181Z,956.1000
2023-01-09T09:02:03.472Z,956.1600
2023-01-09T09:03:05.893Z,956.1200
2023-01-09T09:04:08.137Z,956.1400
2023-01-09T09:05:08.345Z,956.1600
2023-01-09T09:06:10.708Z,956.1800
2023-01-09T09:07:13.078Z,956.1800
2023-01-09T09:08:15.396Z,956.1800
2023-01-09T09:09:17.729Z,956.1800
2023-01-09T09:10:17.961Z,956.1600
2023-01-09T09:12:23.726Z,956.1800
2023-01-09T09:13:27.355Z,956.2000
2023-01-09T09:14:29.505Z,956.2000
2023-01-09T09:15:31.890Z,956.1800
2023-01-09T09:16:34.204Z,956.2200
2023-01-09T09:17:36.542Z,956.2000
2023-01-09T09:18:36.780Z,956.2200
2023-01-09T09:19:39.100Z,956.2000
2023-01-09T09:20:41.461Z,956.2400
2023-01-09T09:21:43.835Z,956.2400
2023-01-09T09:22:46.190Z,956.2600
2023-01-09T09:23:46.427Z,956.2200
2023-01-09T09:24:50.920Z,956.2600
2023-01-09T09:25:33.944Z,956.3000
2023-01-09T09:26:36.313Z,956.2800
2023-01-09T09:27:36.599Z,956.3000
2023-01-09T09:28:38.970Z,956.3200
2023-01-09T09:29:41.372Z,956.3200
2023-01-09T09:30:43.748Z,956.2800
2023-01-09T09:31:43.926Z,956.3000
2023-01-09T09:32:46.309Z,956.2600
2023-01-09T09:33:48.613Z,956.3000
2023-01-09T09:34:50.979Z,956.2600
2023-01-09T09:35:53.292Z,956.2800
2023-01-09T09:36:53.571Z,956.2800
2023-01-09T09:37:55.827Z,956.2600
2023-01-09T09:38:58.173Z,956.2600
2023-01-09T09:40:09.617Z,956.2800
2023-01-09T09:41:02.858Z,956.2600
2023-01-09T09:42:05.198Z,956.2800
2023-01-09T09:43:05.405Z,956.2200
2023-01-09T09:44:07.752Z,956.2400
2023-01-09T09:45:10.124Z,956.2600
2023-01-09T09:46:12.528Z,956.3000
2023-01-09T09:47:14.777Z,956.3000
2023-01-09T09:48:14.990Z,956.3000
2023-01-09T09:49:17.348Z,956.3200
2023-01-09T09:50:19.714Z,956.2800
2023-01-09T09:51:22.055Z,956.2800
2023-01-09T09:52:24.404Z,956.3200
2023-01-09T09:53:24.608Z,956.3000
2023-01-09T09:54:26.964Z,956.2800
2023-01-09T09:55:29.343Z,956.3200
2023-01-09T09:56:31.606Z,956.3200
2023-01-09T09:57:33.891Z,956.3200
2023-01-09T09:58:34.070Z,956.3000
2023-01-09T09:59:36.383Z,956.3000
2023-01-09T10:00:39.802Z,956.3000
2023-01-09T10:01:40.972Z,956.3000
2023-01-09T10:02:43.262Z,956.3000
2023-01-09T10:03:43.570Z,956.3000
2023-01-09T10:04:45.664Z,956.2600
2023-01-09T10:05:48.002Z,956.2800
2023-01-09T10:06:50.307Z,956.2800
2023-01-09T10:07:52.656Z,956.2400
2023-01-09T10:08:54.996Z,956.2200
2023-01-09T10:09:55.192Z,956.2400
2023-01-09T10:10:57.541Z,956.2200
2023-01-09T10:11:59.864Z,956.2000
2023-01-09T10:13:02.247Z,956.1400
2023-01-09T10:14:06.299Z,956.0800
2023-01-09T10:15:04.832Z,956.1000
2023-01-09T10:16:07.316Z,956.0800
2023-01-09T10:17:09.542Z,956.0400
2023-01-09T10:18:11.795Z,956.0800
2023-01-09T10:19:14.098Z,956.0200
2023-01-09T10:20:16.358Z,956.0400
2023-01-09T10:21:16.610Z,956.0200
2023-01-09T10:22:18.774Z,956.0200
2023-01-09T10:23:21.081Z,956.0400
2023-01-09T10:24:23.393Z,956.0200
2023-01-09T10:25:25.686Z,955.9800
2023-01-09T10:26:28.023Z,955.9800
2023-01-09T10:27:30.317Z,956.0000
2023-01-09T10:28:30.484Z,955.9800
2023-01-09T10:29:32.743Z,956.0200
2023-01-09T10:30:35.021Z,956.0400
2023-01-09T10:31:37.494Z,956.0200
2023-01-09T10:32:39.681Z,956.0200
2023-01-09T10:33:41.961Z,956.0000
2023-01-09T10:34:42.129Z,956.0600
2023-01-09T10:35:48.102Z,955.9800
2023-01-09T10:36:49.094Z,956.0000
2023-01-09T10:37:49.118Z,956.0200
2023-01-09T10:38:49.295Z,956.0800
2023-01-09T10:39:49.482Z,956.0200
2023-01-09T10:40:51.840Z,956.0200
2023-01-09T10:41:54.302Z,956.0600
2023-01-09T10:42:56.443Z,955.9800
2023-01-09T10:43:56.611Z,956.0200
2023-01-09T10:44:58.897Z,956.0000
2023-01-09T10:46:01.219Z,956.0200
2023-01-09T10:47:03.679Z,956.0400
2023-01-09T10:48:06.018Z,956.0000
2023-01-09T10:49:08.206Z,956.0000
2023-01-09T10:50:08.387Z,955.9200
2023-01-09T10:51:10.727Z,955.9200
2023-01-09T10:52:15.456Z,955.9800
2023-01-09T10:53:15.431Z,955.9400
2023-01-09T10:54:17.799Z,955.9200
2023-01-09T10:55:17.920Z,955.9200
2023-01-09T10:56:20.300Z,955.9200
2023-01-09T10:57:22.627Z,955.9400
2023-01-09T10:58:24.968Z,955.9600
2023-01-09T10:59:27.342Z,955.9200
2023-01-09T11:00:29.723Z,955.9200
2023-01-09T11:01:29.960Z,955.9400
2023-01-09T11:02:32.429Z,955.9200
2023-01-09T11:03:34.823Z,955.9400
2023-01-09T11:04:37.059Z,956.0000
2023-01-09T11:05:37.287Z,955.9800
2023-01-09T11:06:39.623Z,955.9400
2023-01-09T11:07:42.002Z,955.9600
2023-01-09T11:08:44.374Z,955.9400
2023-01-09T11:09:44.599Z,955.9200
2023-01-09T11:11:20.097Z,955.9000
2023-01-09T11:12:20.534Z,955.9000
2023-01-09T11:13:22.758Z,955.8800
2023-01-09T11:14:25.012Z,955.8800
2023-01-09T11:15:27.326Z,955.8800
2023-01-09T11:16:29.647Z,955.8800
2023-01-09T11:17:29.759Z,955.9000
2023-01-09T11:18:32.080Z,955.9000
2023-01-09T11:19:34.507Z,955.9000
2023-01-09T11:20:36.806Z,955.8800
2023-01-09T11:21:39.199Z,955.8800
2023-01-09T11:22:39.387Z,955.8600
2023-01-09T11:23:41.898Z,955.7900
2023-01-09T11:24:44.107Z,955.8100
2023-01-09T11:25:46.477Z,955.8600
2023-01-09T11:26:48.822Z,955.7900
2023-01-09T11:27:49.009Z,955.8100
2023-01-09T11:28:51.469Z,955.7700
2023-01-09T11:29:53.639Z,955.7700
2023-01-09T11:30:55.953Z,955.7900
2023-01-09T11:31:58.347Z,955.8100
2023-01-09T11:32:58.535Z,955.7900
2023-01-09T11:34:00.919Z,955.8100
2023-01-09T11:35:03.272Z,955.8300
2023-01-09T11:36:05.626Z,955.8500
2023-01-09T11:37:08.092Z,955.8300
2023-01-09T11:38:08.206Z,955.8500
2023-01-09T11:39:10.608Z,955.8300
2023-01-09T11:40:12.934Z,955.8300
2023-01-09T11:41:15.300Z,955.7900
2023-01-09T11:42:17.657Z,955.7900
2023-01-09T11:43:17.886Z,955.8600
2023-01-09T11:44:20.269Z,955.8600
2023-01-09T11:45:22.642Z,955.8600
2023-01-09T11:46:25.081Z,955.8300
2023-01-09T11:47:25.277Z,955.8500
2023-01-09T11:48:27.682Z,955.9000
2023-01-09T11:49:30.099Z,955.9200
2023-01-09T11:50:30.264Z,955.8800
2023-01-09T11:51:32.637Z,955.9800
2023-01-09T11:52:35.018Z,955.9200
2023-01-09T11:53:37.401Z,955.9000
2023-01-09T11:54:39.935Z,955.9400
2023-01-09T11:55:42.741Z,955.9600
2023-01-09T11:56:42.346Z,956.0400
2023-01-09T11:57:44.686Z,956.0400
2023-01-09T11:58:46.987Z,955.9800
2023-01-09T11:59:49.351Z,956.0200
2023-01-09T12:00:49.511Z,956.1000
2023-01-09T12:01:51.975Z,956.1200
2023-01-09T12:02:54.266Z,956.1400
2023-01-09T12:03:56.569Z,956.2000
2023-01-09T12:04:58.976Z,956.2000
2023-01-09T12:05:59.199Z,956.1600
2023-01-09T12:07:01.544Z,956.2400
2023-01-09T12:08:03.894Z,956.2400
2023-01-09T12:09:06.244Z,956.2000
2023-01-09T12:10:08.661Z,956.2800
2023-01-09T12:11:08.825Z,956.3200